MMMX/MEX METAR and TAF weather

Enter ICAO airport designator
Station Type Date Time Source
MMMX METAR 2020/01/28 11:46 UTC NOAA

MMMX 281146Z 28002KT 10SM SKC 09/M02 A3024 NOSIG


Station Type Date Time Source
MMMX Decoded METAR 2020/01/28 11:46 UTC NOAA

Mexico City / Licenci, Mexico (MMMX) 19-26N 099-06W
Jan 28, 2020 - 06:46 AM EST / 2020.01.28 1146 UTC
Wind: from the W (280 degrees) at 2 MPH (2 KT):0
Visibility: 10 mile(s):0
Sky conditions: clear
Temperature: 48 F (9 C)
Dew Point: 28 F (-2 C)
Relative Humidity: 45%
Pressure (altimeter): 30.24 in. Hg (1024 hPa)
Pressure tendency: 0.01 inches (0.4 hPa) lower than three hours ago
ob: MMMX 281146Z 28002KT 10SM SKC 09/M02 A3024 NOSIG RMK SLP094 57004 964
cycle: 12

Station Type Date Time Source
MMMX TAF 2020/01/28 12:30 UTC NOAA

TAF MMMX 281123Z 2812/2918 23005KT P6SM SKC TX23/2821Z TN09/2812Z
FM281900 24010KT P6SM SKC
FM290200 23005KT P6SM SCT080
TEMPO 2910/2914 1SM BR BKN010
FM291500 03005KT P6SM SCT015

Example: see airport list